sensor_id;sensor_type;location;lat;lon;timestamp;pressure;altitude;pressure_sealevel;temperature;humidity
6500;BME280;3283;52.330;9.772;2023-12-14T00:01:19;99227.94;;;0.80;100.00
6500;BME280;3283;52.330;9.772;2023-12-14T00:03:45;99225.25;;;0.60;100.00
6500;BME280;3283;52.330;9.772;2023-12-14T00:06:11;99221.94;;;0.93;100.00
6500;BME280;3283;52.330;9.772;2023-12-14T00:08:36;99227.06;;;0.84;100.00
6500;BME280;3283;52.330;9.772;2023-12-14T00:11:06;99234.84;;;0.78;100.00
6500;BME280;3283;52.330;9.772;2023-12-14T00:13:32;99239.19;;;0.87;100.00
6500;BME280;3283;52.330;9.772;2023-12-14T00:15:58;99241.72;;;0.76;100.00
6500;BME280;3283;52.330;9.772;2023-12-14T00:18:24;99248.66;;;0.83;100.00
6500;BME280;3283;52.330;9.772;2023-12-14T00:20:49;99254.69;;;0.80;100.00
6500;BME280;3283;52.330;9.772;2023-12-14T00:23:15;99264.88;;;0.45;100.00
6500;BME280;3283;52.330;9.772;2023-12-14T00:25:40;99264.00;;;0.46;100.00
6500;BME280;3283;52.330;9.772;2023-12-14T00:28:05;99268.38;;;0.53;100.00
6500;BME280;3283;52.330;9.772;2023-12-14T00:30:31;99268.31;;;0.47;100.00
6500;BME280;3283;52.330;9.772;2023-12-14T00:32:56;99278.69;;;0.46;100.00
6500;BME280;3283;52.330;9.772;2023-12-14T00:35:21;99279.53;;;0.43;100.00
6500;BME280;3283;52.330;9.772;2023-12-14T00:37:47;99288.13;;;0.39;100.00
6500;BME280;3283;52.330;9.772;2023-12-14T00:40:12;99295.94;;;0.44;100.00
6500;BME280;3283;52.330;9.772;2023-12-14T00:42:37;99297.56;;;0.33;100.00
6500;BME280;3283;52.330;9.772;2023-12-14T00:45:03;99296.72;;;0.35;100.00
6500;BME280;3283;52.330;9.772;2023-12-14T00:47:29;99306.06;;;0.15;100.00
6500;BME280;3283;52.330;9.772;2023-12-14T00:49:54;99310.34;;;0.08;100.00
6500;BME280;3283;52.330;9.772;2023-12-14T00:52:19;99305.97;;;0.06;100.00
6500;BME280;3283;52.330;9.772;2023-12-14T00:54:45;99318.09;;;0.11;100.00
6500;BME280;3283;52.330;9.772;2023-12-14T00:57:10;99318.03;;;0.04;100.00
6500;BME280;3283;52.330;9.772;2023-12-14T00:59:35;99328.38;;;0.04;100.00
6500;BME280;3283;52.330;9.772;2023-12-14T01:02:01;99344.72;;;-0.04;100.00
6500;BME280;3283;52.330;9.772;2023-12-14T01:04:26;99349.09;;;0.07;100.00
6500;BME280;3283;52.330;9.772;2023-12-14T01:06:51;99346.53;;;0.08;100.00
6500;BME280;3283;52.330;9.772;2023-12-14T01:09:17;99349.13;;;0.11;100.00
6500;BME280;3283;52.330;9.772;2023-12-14T01:11:42;99357.75;;;0.09;100.00
6500;BME280;3283;52.330;9.772;2023-12-14T01:14:10;99358.56;;;0.05;100.00
6500;BME280;3283;52.330;9.772;2023-12-14T01:16:36;99362.00;;;0.05;100.00
6500;BME280;3283;52.330;9.772;2023-12-14T01:19:01;99368.84;;;-0.02;100.00
6500;BME280;3283;52.330;9.772;2023-12-14T01:21:27;99371.44;;;-0.03;100.00
6500;BME280;3283;52.330;9.772;2023-12-14T01:23:52;99368.91;;;0.02;100.00
6500;BME280;3283;52.330;9.772;2023-12-14T01:26:17;99371.47;;;0.00;100.00
6500;BME280;3283;52.330;9.772;2023-12-14T01:28:43;99370.69;;;0.12;100.00
6500;BME280;3283;52.330;9.772;2023-12-14T01:31:09;99382.63;;;-0.03;100.00
6500;BME280;3283;52.330;9.772;2023-12-14T01:33:34;99384.44;;;0.05;100.00
6500;BME280;3283;52.330;9.772;2023-12-14T01:36:00;99389.59;;;0.05;100.00
6500;BME280;3283;52.330;9.772;2023-12-14T01:38:25;99389.59;;;0.00;100.00
6500;BME280;3283;52.330;9.772;2023-12-14T01:40:50;99397.28;;;-0.02;100.00
6500;BME280;3283;52.330;9.772;2023-12-14T01:43:16;99399.78;;;-0.14;100.00
6500;BME280;3283;52.330;9.772;2023-12-14T01:45:41;99401.59;;;-0.05;100.00
6500;BME280;3283;52.330;9.772;2023-12-14T01:48:07;99406.75;;;-0.04;100.00
6500;BME280;3283;52.330;9.772;2023-12-14T01:50:32;99408.50;;;-0.04;100.00
6500;BME280;3283;52.330;9.772;2023-12-14T01:52:58;99415.44;;;0.02;100.00
6500;BME280;3283;52.330;9.772;2023-12-14T01:55:23;99423.34;;;0.15;100.00
6500;BME280;3283;52.330;9.772;2023-12-14T01:57:50;99423.28;;;0.09;100.00
6500;BME280;3283;52.330;9.772;2023-12-14T02:00:25;99422.47;;;0.16;100.00
6500;BME280;3283;52.330;9.772;2023-12-14T02:02:52;99418.03;;;0.03;100.00
6500;BME280;3283;52.330;9.772;2023-12-14T02:05:18;99426.50;;;-0.12;100.00
6500;BME280;3283;52.330;9.772;2023-12-14T02:07:43;99431.63;;;-0.15;100.00
6500;BME280;3283;52.330;9.772;2023-12-14T02:10:08;99442.03;;;-0.09;100.00
6500;BME280;3283;52.330;9.772;2023-12-14T02:12:34;99442.81;;;-0.19;100.00
6500;BME280;3283;52.330;9.772;2023-12-14T02:15:00;99444.53;;;-0.21;100.00
6500;BME280;3283;52.330;9.772;2023-12-14T02:17:25;99448.75;;;-0.26;100.00
6500;BME280;3283;52.330;9.772;2023-12-14T02:19:51;99450.72;;;-0.07;100.00
6500;BME280;3283;52.330;9.772;2023-12-14T02:22:17;99446.34;;;-0.08;100.00
6500;BME280;3283;52.330;9.772;2023-12-14T02:24:42;99451.72;;;0.08;100.00
6500;BME280;3283;52.330;9.772;2023-12-14T02:27:08;99458.47;;;-0.07;100.00
6500;BME280;3283;52.330;9.772;2023-12-14T02:29:33;99462.56;;;-0.22;100.00
6500;BME280;3283;52.330;9.772;2023-12-14T02:31:59;99468.56;;;-0.28;100.00
6500;BME280;3283;52.330;9.772;2023-12-14T02:34:24;99459.88;;;-0.33;100.00
6500;BME280;3283;52.330;9.772;2023-12-14T02:36:53;99466.88;;;-0.23;100.00
6500;BME280;3283;52.330;9.772;2023-12-14T02:39:18;99478.06;;;-0.25;100.00
6500;BME280;3283;52.330;9.772;2023-12-14T02:41:43;99475.38;;;-0.33;100.00
6500;BME280;3283;52.330;9.772;2023-12-14T02:44:09;99483.06;;;-0.39;100.00
6500;BME280;3283;52.330;9.772;2023-12-14T02:46:34;99483.94;;;-0.36;100.00
6500;BME280;3283;52.330;9.772;2023-12-14T02:49:00;99489.25;;;-0.28;100.00
6500;BME280;3283;52.330;9.772;2023-12-14T02:51:25;99493.59;;;-0.22;100.00
6500;BME280;3283;52.330;9.772;2023-12-14T02:53:51;99492.72;;;-0.23;100.00
6500;BME280;3283;52.330;9.772;2023-12-14T02:56:16;99497.19;;;-0.11;100.00
6500;BME280;3283;52.330;9.772;2023-12-14T02:58:41;99505.66;;;-0.21;100.00
6500;BME280;3283;52.330;9.772;2023-12-14T03:01:07;99504.09;;;-0.09;100.00
6500;BME280;3283;52.330;9.772;2023-12-14T03:03:33;99509.41;;;0.01;100.00
6500;BME280;3283;52.330;9.772;2023-12-14T03:05:58;99511.16;;;0.03;100.00
6500;BME280;3283;52.330;9.772;2023-12-14T03:08:23;99506.59;;;-0.16;100.00
6500;BME280;3283;52.330;9.772;2023-12-14T03:10:49;99506.50;;;-0.27;100.00
6500;BME280;3283;52.330;9.772;2023-12-14T03:13:14;99507.72;;;0.06;100.00
6500;BME280;3283;52.330;9.772;2023-12-14T03:15:42;99512.97;;;0.12;100.00
6500;BME280;3283;52.330;9.772;2023-12-14T03:18:08;99516.25;;;-0.02;100.00
6500;BME280;3283;52.330;9.772;2023-12-14T03:20:33;99518.97;;;0.09;100.00
6500;BME280;3283;52.330;9.772;2023-12-14T03:22:59;99528.50;;;0.13;100.00
6500;BME280;3283;52.330;9.772;2023-12-14T03:25:24;99521.59;;;0.12;100.00
6500;BME280;3283;52.330;9.772;2023-12-14T03:27:51;99518.03;;;0.03;100.00
6500;BME280;3283;52.330;9.772;2023-12-14T03:30:16;99523.38;;;0.16;100.00
6500;BME280;3283;52.330;9.772;2023-12-14T03:32:42;99528.63;;;0.22;100.00
6500;BME280;3283;52.330;9.772;2023-12-14T03:35:07;99528.53;;;0.16;100.00
6500;BME280;3283;52.330;9.772;2023-12-14T03:37:33;99534.59;;;0.18;100.00
6500;BME280;3283;52.330;9.772;2023-12-14T03:39:59;99542.19;;;0.02;100.00
6500;BME280;3283;52.330;9.772;2023-12-14T03:42:24;99541.13;;;-0.13;100.00
6500;BME280;3283;52.330;9.772;2023-12-14T03:44:49;99537.00;;;0.02;100.00
6500;BME280;3283;52.330;9.772;2023-12-14T03:47:15;99546.34;;;-0.10;100.00
6500;BME280;3283;52.330;9.772;2023-12-14T03:49:40;99543.81;;;-0.07;100.00
6500;BME280;3283;52.330;9.772;2023-12-14T03:52:06;99548.69;;;-0.28;100.00
6500;BME280;3283;52.330;9.772;2023-12-14T03:54:31;99548.72;;;-0.25;100.00
6500;BME280;3283;52.330;9.772;2023-12-14T03:56:56;99544.25;;;-0.38;100.00
6500;BME280;3283;52.330;9.772;2023-12-14T03:59:22;99553.63;;;-0.43;100.00
6500;BME280;3283;52.330;9.772;2023-12-14T04:01:47;99570.75;;;-0.50;100.00
6500;BME280;3283;52.330;9.772;2023-12-14T04:04:13;99564.13;;;-0.33;100.00
6500;BME280;3283;52.330;9.772;2023-12-14T04:06:38;99567.56;;;-0.35;100.00
6500;BME280;3283;52.330;9.772;2023-12-14T04:09:03;99578.72;;;-0.36;100.00
6500;BME280;3283;52.330;9.772;2023-12-14T04:11:29;99577.06;;;-0.31;100.00
6500;BME280;3283;52.330;9.772;2023-12-14T04:13:55;99582.44;;;-0.16;100.00
6500;BME280;3283;52.330;9.772;2023-12-14T04:16:20;99591.31;;;0.02;100.00
6500;BME280;3283;52.330;9.772;2023-12-14T04:18:46;99594.81;;;0.07;100.00
6500;BME280;3283;52.330;9.772;2023-12-14T04:21:11;99598.47;;;0.24;100.00
6500;BME280;3283;52.330;9.772;2023-12-14T04:23:37;99606.91;;;0.08;100.00
6500;BME280;3283;52.330;9.772;2023-12-14T04:26:02;99611.84;;;-0.08;100.00
6500;BME280;3283;52.330;9.772;2023-12-14T04:28:28;99616.88;;;-0.20;100.00
6500;BME280;3283;52.330;9.772;2023-12-14T04:30:53;99620.47;;;-0.10;100.00
6500;BME280;3283;52.330;9.772;2023-12-14T04:33:18;99623.03;;;-0.10;100.00
6500;BME280;3283;52.330;9.772;2023-12-14T04:35:43;99622.19;;;-0.11;100.00
6500;BME280;3283;52.330;9.772;2023-12-14T04:38:09;99622.84;;;-0.24;100.00
6500;BME280;3283;52.330;9.772;2023-12-14T04:40:34;99630.50;;;-0.30;100.00
6500;BME280;3283;52.330;9.772;2023-12-14T04:43:00;99628.69;;;-0.36;100.00
6500;BME280;3283;52.330;9.772;2023-12-14T04:45:25;99628.66;;;-0.40;100.00
6500;BME280;3283;52.330;9.772;2023-12-14T04:47:51;99637.28;;;-0.38;100.00
6500;BME280;3283;52.330;9.772;2023-12-14T04:50:16;99646.00;;;-0.33;100.00
6500;BME280;3283;52.330;9.772;2023-12-14T04:52:42;99652.75;;;-0.41;100.00
6500;BME280;3283;52.330;9.772;2023-12-14T04:55:08;99654.63;;;-0.31;100.00
6500;BME280;3283;52.330;9.772;2023-12-14T04:57:33;99654.94;;;-0.11;100.00
6500;BME280;3283;52.330;9.772;2023-12-14T04:59:59;99660.19;;;-0.04;100.00
6500;BME280;3283;52.330;9.772;2023-12-14T05:02:24;99653.53;;;0.14;100.00
6500;BME280;3283;52.330;9.772;2023-12-14T05:04:50;99659.59;;;0.14;100.00
6500;BME280;3283;52.330;9.772;2023-12-14T05:07:15;99662.09;;;0.08;100.00
6500;BME280;3283;52.330;9.772;2023-12-14T05:09:41;99661.06;;;-0.03;100.00
6500;BME280;3283;52.330;9.772;2023-12-14T05:12:06;99669.66;;;-0.06;100.00
6500;BME280;3283;52.330;9.772;2023-12-14T05:14:32;99681.66;;;-0.09;100.00
6500;BME280;3283;52.330;9.772;2023-12-14T05:16:57;99672.91;;;-0.19;100.00
6500;BME280;3283;52.330;9.772;2023-12-14T05:19:23;99681.44;;;-0.26;100.00
6500;BME280;3283;52.330;9.772;2023-12-14T05:21:48;99685.84;;;-0.19;100.00
6500;BME280;3283;52.330;9.772;2023-12-14T05:24:14;99689.53;;;-0.02;100.00
6500;BME280;3283;52.330;9.772;2023-12-14T05:26:40;99689.28;;;-0.20;100.00
6500;BME280;3283;52.330;9.772;2023-12-14T05:29:05;99699.56;;;-0.23;100.00
6500;BME280;3283;52.330;9.772;2023-12-14T05:31:30;99706.00;;;0.04;100.00
6500;BME280;3283;52.330;9.772;2023-12-14T05:33:56;99712.13;;;0.09;100.00
6500;BME280;3283;52.330;9.772;2023-12-14T05:36:21;99711.03;;;-0.06;100.00
6500;BME280;3283;52.330;9.772;2023-12-14T05:38:47;99702.38;;;-0.08;100.00
6500;BME280;3283;52.330;9.772;2023-12-14T05:41:12;99715.41;;;-0.02;100.00
6500;BME280;3283;52.330;9.772;2023-12-14T05:43:37;99712.75;;;-0.06;100.00
6500;BME280;3283;52.330;9.772;2023-12-14T05:46:03;99717.38;;;0.15;100.00
6500;BME280;3283;52.330;9.772;2023-12-14T05:48:29;99711.19;;;0.07;100.00
6500;BME280;3283;52.330;9.772;2023-12-14T05:50:56;99720.13;;;0.27;100.00
6500;BME280;3283;52.330;9.772;2023-12-14T05:53:22;99732.06;;;0.17;100.00
6500;BME280;3283;52.330;9.772;2023-12-14T05:55:47;99737.44;;;0.31;100.00
6500;BME280;3283;52.330;9.772;2023-12-14T05:58:13;99745.97;;;0.24;100.00
6500;BME280;3283;52.330;9.772;2023-12-14T06:00:39;99740.88;;;0.30;100.00
6500;BME280;3283;52.330;9.772;2023-12-14T06:03:05;99745.09;;;0.22;100.00
6500;BME280;3283;52.330;9.772;2023-12-14T06:05:30;99747.56;;;0.16;100.00
6500;BME280;3283;52.330;9.772;2023-12-14T06:07:56;99749.13;;;0.06;100.00
6500;BME280;3283;52.330;9.772;2023-12-14T06:10:22;99746.72;;;0.17;100.00
6500;BME280;3283;52.330;9.772;2023-12-14T06:12:47;99747.66;;;0.22;100.00
6500;BME280;3283;52.330;9.772;2023-12-14T06:15:13;99756.13;;;0.12;100.00
6500;BME280;3283;52.330;9.772;2023-12-14T06:17:38;99758.78;;;0.15;100.00
6500;BME280;3283;52.330;9.772;2023-12-14T06:20:06;99751.91;;;0.17;100.00
6500;BME280;3283;52.330;9.772;2023-12-14T06:22:35;99765.69;;;0.16;100.00
6500;BME280;3283;52.330;9.772;2023-12-14T06:25:01;99767.09;;;-0.05;100.00
6500;BME280;3283;52.330;9.772;2023-12-14T06:27:26;99773.25;;;0.04;100.00
6500;BME280;3283;52.330;9.772;2023-12-14T06:29:52;99780.13;;;0.03;100.00
6500;BME280;3283;52.330;9.772;2023-12-14T06:32:18;99778.22;;;-0.09;100.00
6500;BME280;3283;52.330;9.772;2023-12-14T06:34:43;99782.72;;;0.02;100.00
6500;BME280;3283;52.330;9.772;2023-12-14T06:37:09;99786.06;;;-0.04;100.00
6500;BME280;3283;52.330;9.772;2023-12-14T06:39:34;99792.31;;;0.09;100.00
6500;BME280;3283;52.330;9.772;2023-12-14T06:42:00;99786.97;;;-0.01;100.00
6500;BME280;3283;52.330;9.772;2023-12-14T06:44:25;99798.91;;;-0.07;100.00
6500;BME280;3283;52.330;9.772;2023-12-14T06:46:52;99793.69;;;-0.12;100.00
6500;BME280;3283;52.330;9.772;2023-12-14T06:49:18;99792.97;;;-0.03;100.00
6500;BME280;3283;52.330;9.772;2023-12-14T06:51:43;99793.03;;;0.00;100.00
6500;BME280;3283;52.330;9.772;2023-12-14T06:54:11;99794.94;;;0.12;100.00
6500;BME280;3283;52.330;9.772;2023-12-14T06:56:36;99808.84;;;0.20;100.00
6500;BME280;3283;52.330;9.772;2023-12-14T06:59:02;99808.13;;;0.29;100.00
6500;BME280;3283;52.330;9.772;2023-12-14T07:01:28;99818.16;;;0.09;100.00
6500;BME280;3283;52.330;9.772;2023-12-14T07:03:53;99828.44;;;0.04;100.00
6500;BME280;3283;52.330;9.772;2023-12-14T07:06:19;99829.19;;;-0.03;100.00
6500;BME280;3283;52.330;9.772;2023-12-14T07:08:44;99828.44;;;0.06;100.00
6500;BME280;3283;52.330;9.772;2023-12-14T07:11:11;99842.25;;;0.06;100.00
6500;BME280;3283;52.330;9.772;2023-12-14T07:13:37;99840.63;;;0.13;100.00
6500;BME280;3283;52.330;9.772;2023-12-14T07:16:08;99840.47;;;0.02;100.00
6500;BME280;3283;52.330;9.772;2023-12-14T07:18:37;99849.22;;;0.10;100.00
6500;BME280;3283;52.330;9.772;2023-12-14T07:21:04;99856.88;;;0.03;100.00
6500;BME280;3283;52.330;9.772;2023-12-14T07:23:29;99859.84;;;-0.23;100.00
6500;BME280;3283;52.330;9.772;2023-12-14T07:25:55;99863.31;;;-0.22;100.00
6500;BME280;3283;52.330;9.772;2023-12-14T07:28:21;99866.16;;;-0.07;100.00
6500;BME280;3283;52.330;9.772;2023-12-14T07:30:46;99877.59;;;0.06;100.00
6500;BME280;3283;52.330;9.772;2023-12-14T07:33:12;99875.88;;;0.06;100.00
6500;BME280;3283;52.330;9.772;2023-12-14T07:35:37;99885.56;;;0.16;100.00
6500;BME280;3283;52.330;9.772;2023-12-14T07:38:03;99895.91;;;0.16;100.00
6500;BME280;3283;52.330;9.772;2023-12-14T07:40:29;99899.28;;;0.14;100.00
6500;BME280;3283;52.330;9.772;2023-12-14T07:42:54;99905.16;;;0.04;100.00
6500;BME280;3283;52.330;9.772;2023-12-14T07:45:20;99911.56;;;0.25;100.00
6500;BME280;3283;52.330;9.772;2023-12-14T07:47:45;99917.47;;;0.17;100.00
6500;BME280;3283;52.330;9.772;2023-12-14T07:50:12;99925.97;;;0.10;100.00
6500;BME280;3283;52.330;9.772;2023-12-14T07:52:37;99926.00;;;0.13;100.00
6500;BME280;3283;52.330;9.772;2023-12-14T07:55:04;99933.16;;;0.26;100.00
6500;BME280;3283;52.330;9.772;2023-12-14T07:57:30;99937.44;;;0.24;100.00
6500;BME280;3283;52.330;9.772;2023-12-14T07:59:56;99938.03;;;0.09;100.00
6500;BME280;3283;52.330;9.772;2023-12-14T08:02:21;99942.22;;;0.03;100.00
6500;BME280;3283;52.330;9.772;2023-12-14T08:04:47;99944.69;;;-0.04;100.00
6500;BME280;3283;52.330;9.772;2023-12-14T08:07:12;99943.00;;;-0.02;100.00
6500;BME280;3283;52.330;9.772;2023-12-14T08:09:37;99945.66;;;0.02;100.00
6500;BME280;3283;52.330;9.772;2023-12-14T08:12:03;99962.22;;;0.13;100.00
6500;BME280;3283;52.330;9.772;2023-12-14T08:14:29;99964.53;;;-0.03;100.00
6500;BME280;3283;52.330;9.772;2023-12-14T08:16:54;99963.03;;;0.09;100.00
6500;BME280;3283;52.330;9.772;2023-12-14T08:19:19;99966.50;;;0.09;100.00
6500;BME280;3283;52.330;9.772;2023-12-14T08:21:45;99967.28;;;0.07;100.00
6500;BME280;3283;52.330;9.772;2023-12-14T08:24:10;99976.91;;;0.14;100.00
6500;BME280;3283;52.330;9.772;2023-12-14T08:26:35;99980.16;;;0.04;100.00
6500;BME280;3283;52.330;9.772;2023-12-14T08:29:01;99989.94;;;0.18;100.00
6500;BME280;3283;52.330;9.772;2023-12-14T08:31:26;99993.50;;;0.25;100.00
6500;BME280;3283;52.330;9.772;2023-12-14T08:33:51;100002.59;;;0.03;100.00
6500;BME280;3283;52.330;9.772;2023-12-14T08:36:17;100005.06;;;-0.02;100.00
6500;BME280;3283;52.330;9.772;2023-12-14T08:38:43;100003.31;;;-0.04;100.00
6500;BME280;3283;52.330;9.772;2023-12-14T08:41:12;100013.41;;;-0.15;100.00
6500;BME280;3283;52.330;9.772;2023-12-14T08:43:38;100013.47;;;-0.13;100.00
6500;BME280;3283;52.330;9.772;2023-12-14T08:46:04;100018.53;;;-0.19;100.00
6500;BME280;3283;52.330;9.772;2023-12-14T08:48:29;100024.31;;;-0.30;100.00
6500;BME280;3283;52.330;9.772;2023-12-14T08:50:54;100031.16;;;-0.33;100.00
6500;BME280;3283;52.330;9.772;2023-12-14T08:53:20;100033.16;;;-0.20;100.00
6500;BME280;3283;52.330;9.772;2023-12-14T08:55:46;100038.34;;;-0.20;100.00
6500;BME280;3283;52.330;9.772;2023-12-14T08:58:11;100047.28;;;-0.03;100.00
6500;BME280;3283;52.330;9.772;2023-12-14T09:00:37;100053.00;;;0.23;100.00
6500;BME280;3283;52.330;9.772;2023-12-14T09:03:03;100057.16;;;0.15;100.00
6500;BME280;3283;52.330;9.772;2023-12-14T09:05:29;100061.56;;;0.21;100.00
6500;BME280;3283;52.330;9.772;2023-12-14T09:07:54;100066.84;;;0.27;100.00
6500;BME280;3283;52.330;9.772;2023-12-14T09:10:22;100068.66;;;0.30;100.00
6500;BME280;3283;52.330;9.772;2023-12-14T09:12:48;100067.91;;;0.37;100.00
6500;BME280;3283;52.330;9.772;2023-12-14T09:15:13;100078.34;;;0.41;100.00
6500;BME280;3283;52.330;9.772;2023-12-14T09:17:41;100082.03;;;0.52;100.00
6500;BME280;3283;52.330;9.772;2023-12-14T09:20:08;100081.53;;;0.73;100.00
6500;BME280;3283;52.330;9.772;2023-12-14T09:22:33;100085.59;;;0.59;100.00
6500;BME280;3283;52.330;9.772;2023-12-14T09:24:59;100091.38;;;0.46;100.00
6500;BME280;3283;52.330;9.772;2023-12-14T09:27:31;100088.66;;;0.40;100.00
6500;BME280;3283;52.330;9.772;2023-12-14T09:29:56;100087.97;;;0.48;100.00
6500;BME280;3283;52.330;9.772;2023-12-14T09:32:22;100096.81;;;0.58;100.00
6500;BME280;3283;52.330;9.772;2023-12-14T09:34:47;100096.78;;;0.57;100.00
6500;BME280;3283;52.330;9.772;2023-12-14T09:37:13;100094.03;;;0.49;100.00
6500;BME280;3283;52.330;9.772;2023-12-14T09:39:39;100104.31;;;0.44;100.00
6500;BME280;3283;52.330;9.772;2023-12-14T09:42:07;100100.84;;;0.44;100.00
6500;BME280;3283;52.330;9.772;2023-12-14T09:44:34;100100.88;;;0.45;100.00
6500;BME280;3283;52.330;9.772;2023-12-14T09:47:01;100111.00;;;0.35;100.00
6500;BME280;3283;52.330;9.772;2023-12-14T09:49:30;100107.06;;;0.53;100.00
6500;BME280;3283;52.330;9.772;2023-12-14T09:51:56;100112.41;;;0.63;100.00
6500;BME280;3283;52.330;9.772;2023-12-14T09:54:22;100119.56;;;0.76;100.00
6500;BME280;3283;52.330;9.772;2023-12-14T09:56:48;100116.84;;;0.70;100.00
6500;BME280;3283;52.330;9.772;2023-12-14T09:59:14;100126.22;;;0.63;100.00
6500;BME280;3283;52.330;9.772;2023-12-14T10:01:40;100130.72;;;0.72;100.00
6500;BME280;3283;52.330;9.772;2023-12-14T10:04:10;100136.97;;;0.85;100.00
6500;BME280;3283;52.330;9.772;2023-12-14T10:06:41;100128.88;;;0.65;100.00
6500;BME280;3283;52.330;9.772;2023-12-14T10:09:07;100122.66;;;0.57;100.00
6500;BME280;3283;52.330;9.772;2023-12-14T10:11:37;100136.38;;;0.51;100.00
6500;BME280;3283;52.330;9.772;2023-12-14T10:14:17;100134.91;;;0.65;100.00
6500;BME280;3283;52.330;9.772;2023-12-14T10:16:43;100146.03;;;0.60;100.00
6500;BME280;3283;52.330;9.772;2023-12-14T10:19:08;100139.50;;;0.80;100.00
6500;BME280;3283;52.330;9.772;2023-12-14T10:21:34;100144.59;;;0.75;100.00
6500;BME280;3283;52.330;9.772;2023-12-14T10:24:00;100144.31;;;0.62;100.00
6500;BME280;3283;52.330;9.772;2023-12-14T10:26:26;100153.41;;;0.41;100.00
6500;BME280;3283;52.330;9.772;2023-12-14T10:28:52;100157.19;;;0.57;100.00
6500;BME280;3283;52.330;9.772;2023-12-14T10:31:19;100162.28;;;0.52;100.00
6500;BME280;3283;52.330;9.772;2023-12-14T10:33:48;100161.50;;;0.57;100.00
6500;BME280;3283;52.330;9.772;2023-12-14T10:36:14;100168.59;;;0.67;100.00
6500;BME280;3283;52.330;9.772;2023-12-14T10:38:40;100171.22;;;0.68;100.00
6500;BME280;3283;52.330;9.772;2023-12-14T10:41:09;100171.56;;;0.87;100.00
6500;BME280;3283;52.330;9.772;2023-12-14T10:43:38;100182.38;;;1.11;100.00
6500;BME280;3283;52.330;9.772;2023-12-14T10:46:05;100185.59;;;0.98;100.00
6500;BME280;3283;52.330;9.772;2023-12-14T10:48:34;100183.47;;;0.77;100.00
6500;BME280;3283;52.330;9.772;2023-12-14T10:51:01;100191.75;;;1.04;100.00
6500;BME280;3283;52.330;9.772;2023-12-14T10:53:27;100196.66;;;0.89;100.00
6500;BME280;3283;52.330;9.772;2023-12-14T10:55:53;100188.97;;;0.92;100.00
6500;BME280;3283;52.330;9.772;2023-12-14T10:58:20;100187.75;;;0.76;100.00
6500;BME280;3283;52.330;9.772;2023-12-14T11:00:59;100197.25;;;0.76;100.00
6500;BME280;3283;52.330;9.772;2023-12-14T11:03:26;100200.72;;;0.76;100.00
6500;BME280;3283;52.330;9.772;2023-12-14T11:05:51;100210.94;;;0.70;100.00
6500;BME280;3283;52.330;9.772;2023-12-14T11:08:16;100204.81;;;0.64;100.00
6500;BME280;3283;52.330;9.772;2023-12-14T11:10:52;100210.16;;;0.73;100.00
6500;BME280;3283;52.330;9.772;2023-12-14T11:13:21;100210.91;;;0.67;100.00
6500;BME280;3283;52.330;9.772;2023-12-14T11:15:51;100209.91;;;0.62;100.00
6500;BME280;3283;52.330;9.772;2023-12-14T11:23:11;100220.63;;;0.79;100.00
6500;BME280;3283;52.330;9.772;2023-12-14T11:25:40;100220.56;;;0.76;100.00
6500;BME280;3283;52.330;9.772;2023-12-14T11:28:06;100226.66;;;0.78;100.00
6500;BME280;3283;52.330;9.772;2023-12-14T11:30:33;100220.69;;;0.82;100.00
6500;BME280;3283;52.330;9.772;2023-12-14T11:33:00;100226.66;;;0.78;100.00
6500;BME280;3283;52.330;9.772;2023-12-14T11:35:25;100231.03;;;0.80;100.00
6500;BME280;3283;52.330;9.772;2023-12-14T11:37:51;100229.41;;;0.86;100.00
6500;BME280;3283;52.330;9.772;2023-12-14T11:40:18;100239.00;;;0.91;100.00
6500;BME280;3283;52.330;9.772;2023-12-14T11:43:00;100238.94;;;0.88;100.00
6500;BME280;3283;52.330;9.772;2023-12-14T11:45:26;100243.09;;;0.80;100.00
6500;BME280;3283;52.330;9.772;2023-12-14T11:47:52;100249.72;;;0.66;100.00
6500;BME280;3283;52.330;9.772;2023-12-14T11:50:18;100253.88;;;0.59;100.00
6500;BME280;3283;52.330;9.772;2023-12-14T11:52:44;100248.09;;;0.71;100.00
6500;BME280;3283;52.330;9.772;2023-12-14T11:55:10;100249.91;;;0.76;100.00
6500;BME280;3283;52.330;9.772;2023-12-14T11:57:36;100254.22;;;0.76;100.00
6500;BME280;3283;52.330;9.772;2023-12-14T12:00:01;100252.19;;;0.61;100.00
6500;BME280;3283;52.330;9.772;2023-12-14T12:02:28;100251.47;;;0.67;100.00
6500;BME280;3283;52.330;9.772;2023-12-14T12:04:53;100259.28;;;0.70;100.00
6500;BME280;3283;52.330;9.772;2023-12-14T12:07:19;100266.81;;;0.58;100.00
6500;BME280;3283;52.330;9.772;2023-12-14T12:09:44;100261.25;;;0.81;100.00
6500;BME280;3283;52.330;9.772;2023-12-14T12:12:11;100259.81;;;0.94;100.00
6500;BME280;3283;52.330;9.772;2023-12-14T12:14:38;100260.38;;;0.81;100.00
6500;BME280;3283;52.330;9.772;2023-12-14T12:17:05;100258.78;;;0.86;100.00
6500;BME280;3283;52.330;9.772;2023-12-14T12:19:32;100259.19;;;1.07;100.00
6500;BME280;3283;52.330;9.772;2023-12-14T12:21:58;100262.94;;;1.23;100.00
6500;BME280;3283;52.330;9.772;2023-12-14T12:24:23;100270.75;;;1.25;100.00
6500;BME280;3283;52.330;9.772;2023-12-14T12:26:49;100267.41;;;1.30;100.00
6500;BME280;3283;52.330;9.772;2023-12-14T12:29:15;100266.47;;;1.27;100.00
6500;BME280;3283;52.330;9.772;2023-12-14T12:31:40;100269.38;;;1.42;100.00
6500;BME280;3283;52.330;9.772;2023-12-14T12:34:08;100275.88;;;1.20;100.00
6500;BME280;3283;52.330;9.772;2023-12-14T12:36:34;100279.09;;;1.10;100.00
6500;BME280;3283;52.330;9.772;2023-12-14T12:39:00;100285.31;;;1.20;100.00
6500;BME280;3283;52.330;9.772;2023-12-14T12:41:25;100278.13;;;1.05;100.00
6500;BME280;3283;52.330;9.772;2023-12-14T12:43:50;100278.13;;;1.05;100.00
6500;BME280;3283;52.330;9.772;2023-12-14T12:46:16;100287.72;;;1.09;100.00
6500;BME280;3283;52.330;9.772;2023-12-14T12:48:41;100279.94;;;1.07;100.00
6500;BME280;3283;52.330;9.772;2023-12-14T12:51:06;100279.13;;;1.12;100.00
6500;BME280;3283;52.330;9.772;2023-12-14T12:53:32;100282.50;;;1.06;100.00
6500;BME280;3283;52.330;9.772;2023-12-14T12:55:58;100290.16;;;1.01;100.00
6500;BME280;3283;52.330;9.772;2023-12-14T12:58:23;100298.56;;;0.91;100.00
6500;BME280;3283;52.330;9.772;2023-12-14T13:00:49;100298.34;;;0.79;100.00
6500;BME280;3283;52.330;9.772;2023-12-14T13:03:15;100300.97;;;0.80;100.00
6500;BME280;3283;52.330;9.772;2023-12-14T13:05:40;100305.44;;;0.89;100.00
6500;BME280;3283;52.330;9.772;2023-12-14T13:08:05;100302.00;;;0.90;100.00
6500;BME280;3283;52.330;9.772;2023-12-14T13:10:31;100310.59;;;0.86;100.00
6500;BME280;3283;52.330;9.772;2023-12-14T13:12:57;100307.28;;;0.93;100.00